MMCS/CJS METAR and TAF weather

Enter ICAO airport designator
Station Type Date Time Source
MMCS METAR 2019/02/16 00:43 UTC NOAA

MMCS 160043Z 26012KT 10SM SCT050 BKN250 21/04 A2995 RMK 8/502


Station Type Date Time Source
MMCS Decoded METAR 2019/02/16 00:43 UTC NOAA

Ciudad Juarez International , Mexico (MMCS) 31-38N 106-26W
Feb 15, 2019 - 07:43 PM EST / 2019.02.16 0043 UTC
Wind: from the W (260 degrees) at 14 MPH (12 KT):0
Visibility: 10 mile(s):0
Sky conditions: mostly cloudy
Temperature: 69 F (21 C)
Dew Point: 39 F (4 C)
Relative Humidity: 32%
Pressure (altimeter): 29.95 in. Hg (1014 hPa)
ob: MMCS 160043Z 26012KT 10SM SCT050 BKN250 21/04 A2995 RMK 8/502
cycle: 0

Station Type Date Time Source
MMCS TAF 2019/02/15 18:46 UTC NOAA

TAF MMCS 151641Z 1518/1618 27015G25KT P6SM SCT050 BKN080 BKN250
FM160400 26010G20KT P6SM BKN250
BECMG 1606/1607 26015KT
FM161600 27010G20KT P6SM BKN250


Example: see airport list